createdAt,value
2022-10-11T00:06:55.272Z,86.00
2022-10-11T00:17:02.304Z,84.00
2022-10-11T00:27:08.339Z,84.00
2022-10-11T00:37:13.991Z,84.00
2022-10-11T00:47:19.986Z,84.00
2022-10-11T00:57:26.585Z,88.00
2022-10-11T01:07:32.681Z,88.00
2022-10-11T01:17:38.487Z,86.00
2022-10-11T01:27:44.440Z,86.00
2022-10-11T01:37:50.391Z,88.00
2022-10-11T01:47:56.670Z,86.00
2022-10-11T01:58:02.850Z,88.00
2022-10-11T02:08:09.276Z,88.00
2022-10-11T02:18:15.399Z,86.00
2022-10-11T02:28:21.429Z,88.00
2022-10-11T02:38:27.864Z,86.00
2022-10-11T02:48:34.400Z,88.00
2022-10-11T02:58:40.089Z,86.00
2022-10-11T03:08:46.076Z,86.00
2022-10-11T03:18:51.776Z,86.00
2022-10-11T03:28:57.829Z,86.00
2022-10-11T03:39:03.679Z,84.00
2022-10-11T03:49:10.016Z,82.00
2022-10-11T03:59:16.179Z,82.00
2022-10-11T04:09:22.049Z,82.00
2022-10-11T04:19:27.553Z,82.00
2022-10-11T04:29:33.578Z,84.00
2022-10-11T04:39:39.735Z,82.00
2022-10-11T04:49:45.634Z,82.00
2022-10-11T04:59:51.796Z,82.00
2022-10-11T05:09:58.146Z,82.00
2022-10-11T05:20:04.230Z,84.00
2022-10-11T05:30:10.180Z,84.00
2022-10-11T05:40:16.382Z,84.00
2022-10-11T05:50:24.471Z,84.00
2022-10-11T06:00:32.551Z,84.00
2022-10-11T06:10:38.792Z,82.00
2022-10-11T06:20:47.722Z,84.00
2022-10-11T06:30:55.270Z,80.00
2022-10-11T06:41:02.372Z,86.00
2022-10-11T06:51:10.375Z,88.00
2022-10-11T07:01:16.617Z,86.00
2022-10-11T07:11:22.893Z,86.00
2022-10-11T07:21:28.941Z,86.00
2022-10-11T07:31:35.047Z,86.00
2022-10-11T07:41:45.624Z,84.00
2022-10-11T07:51:52.148Z,86.00
2022-10-11T08:01:58.002Z,84.00
2022-10-11T08:12:04.980Z,84.00
2022-10-11T08:22:11.147Z,86.00
2022-10-11T08:32:17.042Z,84.00
2022-10-11T08:42:23.431Z,82.00
2022-10-11T08:52:29.619Z,82.00
2022-10-11T09:03:02.870Z,82.00
2022-10-11T09:12:46.822Z,82.00
2022-10-11T09:22:52.890Z,84.00
2022-10-11T09:32:59.615Z,84.00
2022-10-11T09:43:07.056Z,78.00
2022-10-11T09:53:14.875Z,88.00
2022-10-11T10:03:22.339Z,78.00
2022-10-11T10:13:30.042Z,84.00
2022-10-11T10:23:37.364Z,84.00
2022-10-11T10:33:44.747Z,80.00
2022-10-11T10:43:51.265Z,88.00
2022-10-11T10:53:57.323Z,88.00
2022-10-11T11:04:03.984Z,86.00
2022-10-11T11:14:11.319Z,92.00
2022-10-11T11:24:18.662Z,72.00
2022-10-11T11:34:26.456Z,72.00
2022-10-11T11:44:33.718Z,70.00
2022-10-11T11:54:41.165Z,70.00
2022-10-11T12:04:48.418Z,70.00
2022-10-11T12:14:56.138Z,70.00
2022-10-11T12:25:02.854Z,70.00
2022-10-11T12:35:10.220Z,72.00
2022-10-11T12:45:17.564Z,70.00
2022-10-11T12:55:24.992Z,76.00
2022-10-11T13:05:32.267Z,72.00
2022-10-11T13:15:39.607Z,76.00
2022-10-11T13:25:47.173Z,74.00
2022-10-11T13:35:53.326Z,80.00
2022-10-11T13:46:00.766Z,72.00
2022-10-11T13:56:08.351Z,72.00
2022-10-11T14:06:15.853Z,74.00
2022-10-11T14:16:23.047Z,76.00
2022-10-11T14:26:30.259Z,74.00
2022-10-11T14:36:37.520Z,72.00
2022-10-11T14:46:44.724Z,72.00
2022-10-11T14:56:51.812Z,68.00
2022-10-11T15:06:58.719Z,70.00
2022-10-11T15:17:06.101Z,72.00
2022-10-11T15:27:13.000Z,72.00
2022-10-11T15:37:20.264Z,76.00
2022-10-11T15:47:29.027Z,72.00
2022-10-11T15:57:35.582Z,74.00
2022-10-11T16:07:42.356Z,70.00
2022-10-11T16:17:49.111Z,70.00
2022-10-11T16:27:56.175Z,70.00
2022-10-11T16:38:02.998Z,74.00
2022-10-11T16:48:09.693Z,70.00
2022-10-11T16:58:16.431Z,72.00
2022-10-11T17:08:23.233Z,76.00
2022-10-11T17:18:30.496Z,76.00
2022-10-11T17:28:37.255Z,82.00
2022-10-11T17:38:44.369Z,76.00
2022-10-11T17:48:51.464Z,78.00
2022-10-11T17:58:58.005Z,78.00
2022-10-11T18:09:04.843Z,74.00
2022-10-11T18:19:11.920Z,74.00
2022-10-11T18:29:19.062Z,76.00
2022-10-11T18:39:26.099Z,78.00
2022-10-11T18:49:33.154Z,74.00
2022-10-11T18:59:40.367Z,74.00
2022-10-11T19:09:47.849Z,68.00
2022-10-11T19:19:53.684Z,66.00
2022-10-11T19:29:59.289Z,66.00
2022-10-11T19:40:04.686Z,72.00
2022-10-11T19:50:10.941Z,76.00
2022-10-11T20:00:16.961Z,68.00
2022-10-11T20:10:22.743Z,64.00
2022-10-11T20:20:29.294Z,60.00
2022-10-11T20:30:35.279Z,64.00
2022-10-11T20:40:41.233Z,64.00
2022-10-11T20:50:47.490Z,64.00
2022-10-11T21:00:53.454Z,64.00
2022-10-11T21:10:59.406Z,64.00
2022-10-11T21:21:04.797Z,62.00
2022-10-11T21:31:11.080Z,66.00
2022-10-11T21:41:17.031Z,66.00
2022-10-11T21:51:23.159Z,64.00
2022-10-11T22:01:29.013Z,64.00
2022-10-11T22:11:35.656Z,64.00
2022-10-11T22:21:45.029Z,66.00
2022-10-11T22:31:51.121Z,64.00
2022-10-11T22:41:57.484Z,64.00
2022-10-11T22:52:03.512Z,64.00
2022-10-11T23:02:09.789Z,64.00
2022-10-11T23:12:16.001Z,64.00
2022-10-11T23:22:21.437Z,62.00
2022-10-11T23:32:28.943Z,64.00
2022-10-11T23:42:35.443Z,68.00
2022-10-11T23:52:41.656Z,66.00
